West Sayville, NY (11796)

9:57 PM EDT on August 30, 2015 (GMT -0400)
KNYSAYVI4 | | Change Station
CLOSE
Current Station
Personal Weather Station
Location: Sayville, NY
Elevation: 36 ft
Nearby Weather Stations

Elev 36 ft 40.75 °N, 73.10 °W | Updated 13 seconds ago

Mostly Cloudy
Mostly Cloudy
74.8 °F
Feels Like 74 °F
N
0.0
Wind Variable Wind from WSW
Gusts 5.0 mph

Today
High -- | Low -- °F
--% Chance of Precip.
Yesterday
High -- | Low -- °F
Precip. -- in
6:17 AM 7:28 PM
Full, 97% visible
Pressure 30.03 in
Visibility 10.0 miles
Clouds Few 5000 ft
Few 11000 ft
Mostly Cloudy 26000 ft
Heat Index 74 °F
Dew Point 72 °F
Humidity 90%
Rainfall 0.00 in
Snow Depth Not available.
UV 0 out of 12
Pollen 9.90 out of 12
Air Quality Not available.
Flu Activity Not available.
METAR KISP 310056Z 22009KT 10SM FEW050 FEW110 BKN260 24/21 A3003 RMK AO2 SLP168 T02440206
Pressure 30.03 in
Visibility 10.0 miles
Clouds Few 5000 ft
Few 11000 ft
Mostly Cloudy 26000 ft
Heat Index 74 °F
Dew Point 72 °F
Humidity 90%
Rainfall 0.00 in
Snow Depth Not available.
UV 0 out of 12
Pollen 9.90 out of 12
Air Quality Not available.
Flu Activity Not available.
METAR KISP 310056Z 22009KT 10SM FEW050 FEW110 BKN260 24/21 A3003 RMK AO2 SLP168 T02440206

10-Day Weather Forecast

×

Almanac

Astronomy

Aug. 30, 2015 Rise Set
Actual Time
Civil Twilight
Nautical Twilight
Astronomical Twilight
Moon
Length of Visible Light
Length of Day
Tomorrow will be .
, % of the Moon is Illuminated

Today's Extremes

State Highs State Lows

Community

WunderPhotos

Upload Photos

1,851,145 photos uploaded!

WunderBlogs® & News

Nearby

Air Quality

  Air Quality AQ Index Pollutant
Not available.

Snow Depth

Station Depth Elevation

Earthquake Activity

City Distance Mag. Time & Date
Minimum magnitude displayed is 2.5.

Coastal Water Temperatures

Place Temperature

Stations

Nearby Weather Stations

Station Location Temp. Windchill Dew Point Humidity Wind Precip. Elev Updated Type